Pascoag, Rhode Island
Current Conditions -  °F | °C
As of 8:35 PM on Monday 20 Oct 2014 (Local Time) from KSFZ Reporting Station
Clear Clear  
Wind Chill: 43°   Ceiling: Unl
Heat Index: 43°   Visibility: 10mi
Dew Point: 32°   Wind: 3mph
Humidity: 66%   Direction: 180°S
Pressure: 30"   Gusts: NA
Location:  41.95°N, 71.7°W
Report Text: KSFZ 210035Z 18003KT 10SM CLR 06/00 A3000 RMK AO1
Loading
Personal Weather Stations






























Interactive Weather Map
Tropical Storm Tracking
New forecast layout! Learn more

10-Day Weather Forecast

Advertisements
Track Severe Weather on mobile